Terminal Aerodrome Forecast
Issued by NWS

Home | Current Version | Previous Version | Text Only | Print | Product List | Glossary On
Versions: 1 2 3 4 5 6 7 8 9 10 11 12 13 14 15 16 17 18 19 20 21 22 23 24
530
FTUS43 KGRR 201830 AAA
TAFMKG
TAF AMD
KMKG 201830Z 2019/2118 11004KT 1SM -RA BR OVC006
     FM210300 12004KT 3SM BR OVC003
     FM210800 11006KT 1/2SM FG VCSH OVC003
     FM211700 15007KT 3SM BR OVC008=

USA.gov is the U.S. government's official web portal to all federal, state and local government web resources and services.